createdAt,value
2018-10-01T00:00:58.853Z,1005.77
2018-10-01T00:01:58.837Z,1005.77
2018-10-01T00:02:58.823Z,1005.79
2018-10-01T00:03:58.805Z,1005.78
2018-10-01T00:04:58.788Z,1005.76
2018-10-01T00:05:58.775Z,1005.73
2018-10-01T00:06:58.762Z,1005.74
2018-10-01T00:07:58.745Z,1005.75
2018-10-01T00:08:58.728Z,1005.81
2018-10-01T00:09:58.716Z,1005.75
2018-10-01T00:10:58.701Z,1005.8
2018-10-01T00:11:58.685Z,1005.78
2018-10-01T00:12:58.672Z,1005.77
2018-10-01T00:13:58.655Z,1005.77
2018-10-01T00:14:58.644Z,1005.77
2018-10-01T00:15:58.624Z,1005.76
2018-10-01T00:16:58.613Z,1005.76
2018-10-01T00:17:58.595Z,1005.76
2018-10-01T00:18:58.581Z,1005.76
2018-10-01T00:19:58.565Z,1005.8
2018-10-01T00:20:58.550Z,1005.82
2018-10-01T00:21:58.536Z,1005.83
2018-10-01T00:22:58.521Z,1005.83
2018-10-01T00:23:58.508Z,1005.82
2018-10-01T00:24:58.491Z,1005.85
2018-10-01T00:25:58.478Z,1005.85
2018-10-01T00:26:58.463Z,1005.84
2018-10-01T00:27:58.449Z,1005.81
2018-10-01T00:28:58.486Z,1005.78
2018-10-01T00:29:58.418Z,1005.75
2018-10-01T00:30:58.404Z,1005.77
2018-10-01T00:31:58.386Z,1005.76
2018-10-01T00:32:58.374Z,1005.77
2018-10-01T00:33:58.357Z,1005.77
2018-10-01T00:34:58.342Z,1005.8
2018-10-01T00:35:58.342Z,1005.75
2018-10-01T00:36:58.315Z,1005.81
2018-10-01T00:37:58.297Z,1005.77
2018-10-01T00:38:58.282Z,1005.79
2018-10-01T00:39:58.270Z,1005.75
2018-10-01T00:40:58.253Z,1005.74
2018-10-01T00:41:58.237Z,1005.72
2018-10-01T00:42:58.221Z,1005.74
2018-10-01T00:43:58.212Z,1005.74
2018-10-01T00:44:58.199Z,1005.76
2018-10-01T00:45:58.177Z,1005.75
2018-10-01T00:46:58.163Z,1005.75
2018-10-01T00:47:58.148Z,1005.76
2018-10-01T00:48:58.132Z,1005.74
2018-10-01T00:49:58.117Z,1005.76
2018-10-01T00:50:58.105Z,1005.76
2018-10-01T00:51:58.088Z,1005.75
2018-10-01T00:52:58.074Z,1005.81
2018-10-01T00:53:58.057Z,1005.8
2018-10-01T00:54:58.043Z,1005.77
2018-10-01T00:55:58.031Z,1005.75
2018-10-01T00:56:58.012Z,1005.75
2018-10-01T00:57:58.000Z,1005.73
2018-10-01T00:58:57.982Z,1005.72
2018-10-01T00:59:57.973Z,1005.66
2018-10-01T01:00:57.953Z,1005.68
2018-10-01T01:01:57.937Z,1005.68
2018-10-01T01:02:58.125Z,1005.67
2018-10-01T01:03:57.907Z,1005.69
2018-10-01T01:04:57.893Z,1005.63
2018-10-01T01:05:57.877Z,1005.67
2018-10-01T01:06:57.865Z,1005.7
2018-10-01T01:07:57.847Z,1005.68
2018-10-01T01:08:57.832Z,1005.66
2018-10-01T01:09:57.816Z,1005.66
2018-10-01T01:10:57.801Z,1005.62
2018-10-01T01:11:57.787Z,1005.61
2018-10-01T01:12:57.772Z,1005.63
2018-10-01T01:13:57.761Z,1005.65
2018-10-01T01:14:57.743Z,1005.63
2018-10-01T01:15:57.729Z,1005.61
2018-10-01T01:16:57.736Z,1005.59
2018-10-01T01:17:57.699Z,1005.61
2018-10-01T01:18:57.687Z,1005.6
2018-10-01T01:19:57.666Z,1005.61
2018-10-01T01:20:57.654Z,1005.58
2018-10-01T01:21:57.638Z,1005.51
2018-10-01T01:22:57.622Z,1005.52
2018-10-01T01:23:57.610Z,1005.5
2018-10-01T01:24:57.593Z,1005.45
2018-10-01T01:25:57.580Z,1005.5
2018-10-01T01:26:57.561Z,1005.52
2018-10-01T01:27:57.548Z,1005.53
2018-10-01T01:28:57.533Z,1005.58
2018-10-01T01:29:57.518Z,1005.61
2018-10-01T01:30:57.507Z,1005.57
2018-10-01T01:31:57.487Z,1005.55
2018-10-01T01:32:57.473Z,1005.54
2018-10-01T01:33:57.457Z,1005.54
2018-10-01T01:34:57.443Z,1005.49
2018-10-01T01:35:57.429Z,1005.54
2018-10-01T01:36:57.411Z,1005.54
2018-10-01T01:37:57.400Z,1005.54
2018-10-01T01:38:57.384Z,1005.57
2018-10-01T01:39:57.367Z,1005.66
2018-10-01T01:40:57.353Z,1005.68
2018-10-01T01:41:57.338Z,1005.7
2018-10-01T01:42:57.330Z,1005.72
2018-10-01T01:43:57.306Z,1005.76
2018-10-01T01:44:57.292Z,1005.74
2018-10-01T01:45:57.276Z,1005.76
2018-10-01T01:46:57.262Z,1005.77
2018-10-01T01:47:57.246Z,1005.76
2018-10-01T01:48:57.233Z,1005.73
2018-10-01T01:49:57.215Z,1005.74
2018-10-01T01:50:57.199Z,1005.73
2018-10-01T01:51:57.185Z,1005.75
2018-10-01T01:52:57.170Z,1005.75
2018-10-01T01:53:57.156Z,1005.75
2018-10-01T01:54:57.137Z,1005.78
2018-10-01T01:55:57.123Z,1005.8
2018-10-01T01:56:57.108Z,1005.78
2018-10-01T01:57:57.095Z,1005.8
2018-10-01T01:58:57.080Z,1005.81
2018-10-01T01:59:57.124Z,1005.78
2018-10-01T02:00:57.048Z,1005.77
2018-10-01T02:01:57.035Z,1005.79
2018-10-01T02:02:57.017Z,1005.79
2018-10-01T02:03:57.003Z,1005.77
2018-10-01T02:04:56.989Z,1005.73
2018-10-01T02:05:56.972Z,1005.73
2018-10-01T02:06:56.966Z,1005.76
2018-10-01T02:07:56.941Z,1005.76
2018-10-01T02:08:56.926Z,1005.75
2018-10-01T02:09:56.910Z,1005.77
2018-10-01T02:10:56.901Z,1005.79
2018-10-01T02:11:56.884Z,1005.75
2018-10-01T02:12:56.864Z,1005.76
2018-10-01T02:13:56.848Z,1005.74
2018-10-01T02:14:56.834Z,1005.76
2018-10-01T02:15:56.819Z,1005.78
2018-10-01T02:16:56.805Z,1005.77
2018-10-01T02:17:56.788Z,1005.77
2018-10-01T02:18:56.774Z,1005.75
2018-10-01T02:19:56.758Z,1005.8
2018-10-01T02:20:56.742Z,1005.86
2018-10-01T02:21:56.728Z,1005.85
2018-10-01T02:22:56.711Z,1005.87
2018-10-01T02:23:56.696Z,1005.89
2018-10-01T02:24:56.680Z,1005.92
2018-10-01T02:25:56.666Z,1005.94
2018-10-01T02:26:56.650Z,1005.96
2018-10-01T02:27:56.634Z,1005.91
2018-10-01T02:28:56.621Z,1005.94
2018-10-01T02:29:56.604Z,1005.96
2018-10-01T02:30:56.589Z,1005.92
2018-10-01T02:31:56.575Z,1005.95
2018-10-01T02:32:56.559Z,1005.94
2018-10-01T02:33:56.545Z,1005.95
2018-10-01T02:34:56.528Z,1005.97
2018-10-01T02:35:56.513Z,1005.97
2018-10-01T02:36:56.498Z,1005.99
2018-10-01T02:37:56.484Z,1006
2018-10-01T02:38:56.471Z,1006.01
2018-10-01T02:39:56.451Z,1006.02
2018-10-01T02:40:56.434Z,1006.01
2018-10-01T02:41:56.419Z,1006
2018-10-01T02:42:56.403Z,1006.06
2018-10-01T02:43:56.390Z,1006.03
2018-10-01T02:44:56.371Z,1006.06
2018-10-01T02:45:56.364Z,1006.03
2018-10-01T02:46:56.343Z,1006.01
2018-10-01T02:47:56.326Z,1006.05
2018-10-01T02:48:56.310Z,1006.05
2018-10-01T02:49:56.294Z,1006.03
2018-10-01T02:50:56.282Z,1006.04
2018-10-01T02:51:56.262Z,1006.02
2018-10-01T02:52:56.249Z,1006
2018-10-01T02:53:56.233Z,1006.01
2018-10-01T02:54:56.219Z,1006
2018-10-01T02:55:56.201Z,1005.97
2018-10-01T02:56:56.186Z,1005.96
2018-10-01T02:57:56.174Z,1005.98
2018-10-01T02:58:56.159Z,1006.04
2018-10-01T02:59:56.139Z,1006.03
2018-10-01T03:00:56.126Z,1006.01
2018-10-01T03:01:56.107Z,1006.03
2018-10-01T03:02:56.292Z,1006.04
2018-10-01T03:03:56.076Z,1006.02
2018-10-01T03:04:56.064Z,1006
2018-10-01T03:05:56.042Z,1005.95
2018-10-01T03:06:56.029Z,1006
2018-10-01T03:07:56.011Z,1005.94
2018-10-01T03:08:55.994Z,1005.97
2018-10-01T03:09:55.982Z,1005.94
2018-10-01T03:10:55.963Z,1005.96
2018-10-01T03:11:55.951Z,1005.94
2018-10-01T03:12:55.930Z,1005.96
2018-10-01T03:13:55.915Z,1005.93
2018-10-01T03:14:55.900Z,1005.93
2018-10-01T03:15:55.884Z,1005.91
2018-10-01T03:16:55.869Z,1005.93
2018-10-01T03:17:55.852Z,1005.92
2018-10-01T03:18:55.836Z,1005.91
2018-10-01T03:19:55.821Z,1005.86
2018-10-01T03:20:55.808Z,1005.87
2018-10-01T03:21:55.790Z,1005.88
2018-10-01T03:22:55.772Z,1005.9
2018-10-01T03:23:55.755Z,1005.92
2018-10-01T03:24:55.742Z,1005.91
2018-10-01T03:25:55.721Z,1005.92
2018-10-01T03:26:55.711Z,1005.98
2018-10-01T03:27:55.700Z,1005.95
2018-10-01T03:28:55.675Z,1005.91
2018-10-01T03:29:55.661Z,1005.93
2018-10-01T03:30:55.642Z,1005.93
2018-10-01T03:31:55.627Z,1005.88
2018-10-01T03:32:55.609Z,1005.88
2018-10-01T03:33:55.594Z,1005.92
2018-10-01T03:34:55.577Z,1005.88
2018-10-01T03:35:55.561Z,1005.91
2018-10-01T03:36:55.544Z,1005.92
2018-10-01T03:37:55.529Z,1005.9
2018-10-01T03:38:55.514Z,1005.92
2018-10-01T03:39:55.529Z,1005.89
2018-10-01T03:40:55.481Z,1005.9
2018-10-01T03:41:55.465Z,1005.86
2018-10-01T03:42:55.448Z,1005.88
2018-10-01T03:43:55.433Z,1005.86
2018-10-01T03:44:55.417Z,1005.85
2018-10-01T03:45:55.403Z,1005.82
2018-10-01T03:46:55.383Z,1005.86
2018-10-01T03:47:55.364Z,1005.83
2018-10-01T03:48:55.350Z,1005.79
2018-10-01T03:49:55.340Z,1005.77
2018-10-01T03:50:55.322Z,1005.83
2018-10-01T03:51:55.298Z,1005.84
2018-10-01T03:52:55.285Z,1005.84
2018-10-01T03:53:55.268Z,1005.84
2018-10-01T03:54:55.254Z,1005.83
2018-10-01T03:55:55.235Z,1005.82
2018-10-01T03:56:55.220Z,1005.84
2018-10-01T03:57:55.201Z,1005.88
2018-10-01T03:58:55.187Z,1005.86
2018-10-01T03:59:55.171Z,1005.86
2018-10-01T04:00:55.154Z,1005.88
2018-10-01T04:01:55.139Z,1005.88
2018-10-01T04:02:55.138Z,1005.82
2018-10-01T04:03:55.103Z,1005.78
2018-10-01T04:04:55.090Z,1005.81
2018-10-01T04:05:55.071Z,1005.86
2018-10-01T04:06:55.055Z,1005.87
2018-10-01T04:07:55.042Z,1005.82
2018-10-01T04:08:55.120Z,1005.85
2018-10-01T04:09:55.009Z,1005.83
2018-10-01T04:10:54.991Z,1005.86
2018-10-01T04:11:54.972Z,1005.87
2018-10-01T04:12:54.957Z,1005.84
2018-10-01T04:13:54.939Z,1005.81
2018-10-01T04:14:54.924Z,1005.85
2018-10-01T04:15:54.920Z,1005.85
2018-10-01T04:16:54.891Z,1005.82
2018-10-01T04:17:54.876Z,1005.83
2018-10-01T04:18:54.858Z,1005.8
2018-10-01T04:19:54.840Z,1005.84
2018-10-01T04:20:54.827Z,1005.82
2018-10-01T04:21:54.807Z,1005.84
2018-10-01T04:22:54.903Z,1005.87
2018-10-01T04:23:54.775Z,1005.84
2018-10-01T04:24:54.758Z,1005.88
2018-10-01T04:25:54.741Z,1005.85
2018-10-01T04:26:54.727Z,1005.86
2018-10-01T04:27:54.710Z,1005.87
2018-10-01T04:28:54.693Z,1005.86
2018-10-01T04:29:54.677Z,1005.9
2018-10-01T04:30:54.660Z,1005.9
2018-10-01T04:31:54.646Z,1005.88
2018-10-01T04:32:54.626Z,1005.89
2018-10-01T04:33:54.639Z,1005.95
2018-10-01T04:34:54.595Z,1005.95
2018-10-01T04:35:54.577Z,1005.95
2018-10-01T04:36:54.561Z,1005.91
2018-10-01T04:37:54.544Z,1005.94
2018-10-01T04:38:54.528Z,1005.92
2018-10-01T04:39:54.510Z,1005.95
2018-10-01T04:40:54.495Z,1005.95
2018-10-01T04:41:54.480Z,1005.96
2018-10-01T04:42:54.467Z,1005.99
2018-10-01T04:43:54.448Z,1005.98
2018-10-01T04:44:54.430Z,1006.02
2018-10-01T04:45:54.413Z,1006
2018-10-01T04:46:54.450Z,1006.03
2018-10-01T04:47:54.380Z,1005.97
2018-10-01T04:48:54.368Z,1006
2018-10-01T04:49:54.347Z,1006.04
2018-10-01T04:50:54.330Z,1006.06
2018-10-01T04:51:54.316Z,1006.01
2018-10-01T04:52:54.301Z,1006.05
2018-10-01T04:53:54.283Z,1006.06
2018-10-01T04:54:54.265Z,1006.04
2018-10-01T04:55:54.249Z,1006.13
2018-10-01T04:56:54.233Z,1006.1
2018-10-01T04:57:54.217Z,1006.09
2018-10-01T04:58:54.199Z,1006.12
2018-10-01T04:59:54.187Z,1006.11
2018-10-01T05:00:54.168Z,1006.14
2018-10-01T05:01:54.159Z,1006.14
2018-10-01T05:02:54.336Z,1006.16
2018-10-01T05:03:54.131Z,1006.13
2018-10-01T05:04:54.102Z,1006.17
2018-10-01T05:05:54.085Z,1006.18
2018-10-01T05:06:54.069Z,1006.16
2018-10-01T05:07:54.054Z,1006.2
2018-10-01T05:08:54.035Z,1006.26
2018-10-01T05:09:54.023Z,1006.26
2018-10-01T05:10:54.000Z,1006.26
2018-10-01T05:11:53.987Z,1006.28
2018-10-01T05:12:53.969Z,1006.23
2018-10-01T05:13:53.952Z,1006.25
2018-10-01T05:14:53.994Z,1006.24
2018-10-01T05:15:53.922Z,1006.23
2018-10-01T05:16:53.902Z,1006.24
2018-10-01T05:17:53.886Z,1006.23
2018-10-01T05:18:53.870Z,1006.27
2018-10-01T05:19:53.851Z,1006.31
2018-10-01T05:20:53.837Z,1006.33
2018-10-01T05:21:53.822Z,1006.35
2018-10-01T05:22:53.806Z,1006.32
2018-10-01T05:23:53.787Z,1006.35
2018-10-01T05:24:53.771Z,1006.34
2018-10-01T05:25:53.756Z,1006.29
2018-10-01T05:26:53.742Z,1006.34
2018-10-01T05:27:53.720Z,1006.37
2018-10-01T05:28:53.705Z,1006.34
2018-10-01T05:29:53.690Z,1006.39
2018-10-01T05:30:53.672Z,1006.39
2018-10-01T05:31:53.655Z,1006.43
2018-10-01T05:32:53.640Z,1006.42
2018-10-01T05:33:53.623Z,1006.42
2018-10-01T05:34:53.606Z,1006.42
2018-10-01T05:35:53.589Z,1006.46
2018-10-01T05:36:53.574Z,1006.45
2018-10-01T05:37:53.634Z,1006.47
2018-10-01T05:38:53.541Z,1006.48
2018-10-01T05:39:53.523Z,1006.49
2018-10-01T05:40:53.508Z,1006.51
2018-10-01T05:41:53.492Z,1006.54
2018-10-01T05:42:53.475Z,1006.56
2018-10-01T05:43:53.459Z,1006.58
2018-10-01T05:44:53.442Z,1006.57
2018-10-01T05:45:53.426Z,1006.57
2018-10-01T05:46:53.428Z,1006.54
2018-10-01T05:47:53.392Z,1006.59
2018-10-01T05:48:53.375Z,1006.58
2018-10-01T05:49:53.360Z,1006.61
2018-10-01T05:50:53.342Z,1006.62
2018-10-01T05:51:53.329Z,1006.59
2018-10-01T05:52:53.308Z,1006.66
2018-10-01T05:53:53.292Z,1006.66
2018-10-01T05:54:53.277Z,1006.69
2018-10-01T05:55:53.259Z,1006.68
2018-10-01T05:56:53.243Z,1006.7
2018-10-01T05:57:53.230Z,1006.72
2018-10-01T05:58:53.210Z,1006.72
2018-10-01T05:59:53.191Z,1006.74
2018-10-01T06:00:53.175Z,1006.76
2018-10-01T06:01:53.161Z,1006.77
2018-10-01T06:02:53.142Z,1006.73
2018-10-01T06:03:53.125Z,1006.75
2018-10-01T06:04:53.206Z,1006.81
2018-10-01T06:05:53.096Z,1006.85
2018-10-01T06:06:53.079Z,1006.81
2018-10-01T06:07:53.063Z,1006.87
2018-10-01T06:08:53.042Z,1006.88
2018-10-01T06:09:53.025Z,1006.9
2018-10-01T06:10:53.009Z,1006.93
2018-10-01T06:11:53.019Z,1006.97
2018-10-01T06:12:52.976Z,1006.96
2018-10-01T06:13:52.964Z,1007.02
2018-10-01T06:14:52.949Z,1006.99
2018-10-01T06:15:52.927Z,1006.98
2018-10-01T06:16:52.911Z,1007.01
2018-10-01T06:17:52.894Z,1007.02
2018-10-01T06:18:52.878Z,1007.02
2018-10-01T06:19:52.862Z,1007.02
2018-10-01T06:20:52.846Z,1007.04
2018-10-01T06:21:52.828Z,1006.99
2018-10-01T06:22:52.810Z,1007.02
2018-10-01T06:23:52.797Z,1007.06
2018-10-01T06:24:52.777Z,1007.11
2018-10-01T06:25:52.764Z,1007.08
2018-10-01T06:26:52.744Z,1007.1
2018-10-01T06:27:52.735Z,1007.07
2018-10-01T06:28:52.711Z,1007.1
2018-10-01T06:29:52.722Z,1007.11
2018-10-01T06:30:52.678Z,1007.1
2018-10-01T06:31:52.661Z,1007.14
2018-10-01T06:32:52.642Z,1007.16
2018-10-01T06:33:52.627Z,1007.17
2018-10-01T06:34:52.610Z,1007.17
2018-10-01T06:35:52.593Z,1007.18
2018-10-01T06:36:52.576Z,1007.2
2018-10-01T06:37:52.564Z,1007.2
2018-10-01T06:38:52.545Z,1007.2
2018-10-01T06:39:52.527Z,1007.17
2018-10-01T06:40:52.510Z,1007.2
2018-10-01T06:41:52.585Z,1007.23
2018-10-01T06:42:52.477Z,1007.25
2018-10-01T06:43:52.460Z,1007.26
2018-10-01T06:44:52.443Z,1007.23
2018-10-01T06:45:52.425Z,1007.21
2018-10-01T06:46:52.408Z,1007.22
2018-10-01T06:47:52.400Z,1007.25
2018-10-01T06:48:52.376Z,1007.3
2018-10-01T06:49:52.358Z,1007.28
2018-10-01T06:50:52.399Z,1007.27
2018-10-01T06:51:52.325Z,1007.31
2018-10-01T06:52:52.309Z,1007.31
2018-10-01T06:53:52.294Z,1007.31
2018-10-01T06:54:52.274Z,1007.34
2018-10-01T06:55:52.258Z,1007.3
2018-10-01T06:56:52.241Z,1007.35
2018-10-01T06:57:52.225Z,1007.32
2018-10-01T06:58:52.208Z,1007.33
2018-10-01T06:59:52.190Z,1007.38
2018-10-01T07:00:52.175Z,1007.36
2018-10-01T07:01:52.158Z,1007.38
2018-10-01T07:02:52.140Z,1007.35
2018-10-01T07:03:52.127Z,1007.37
2018-10-01T07:04:52.108Z,1007.38
2018-10-01T07:05:52.331Z,1007.4
2018-10-01T07:06:52.073Z,1007.42
2018-10-01T07:07:52.059Z,1007.42
2018-10-01T07:08:52.040Z,1007.45
2018-10-01T07:09:52.037Z,1007.4
2018-10-01T07:10:52.007Z,1007.43
2018-10-01T07:11:51.992Z,1007.44
2018-10-01T07:12:51.982Z,1007.45
2018-10-01T07:13:51.959Z,1007.5
2018-10-01T07:14:51.942Z,1007.44
2018-10-01T07:15:51.925Z,1007.51
2018-10-01T07:16:51.946Z,1007.46
2018-10-01T07:17:51.892Z,1007.45
2018-10-01T07:18:51.877Z,1007.46
2018-10-01T07:19:51.859Z,1007.48
2018-10-01T07:20:51.857Z,1007.46
2018-10-01T07:21:51.828Z,1007.49
2018-10-01T07:22:51.907Z,1007.46
2018-10-01T07:23:51.794Z,1007.47
2018-10-01T07:24:51.779Z,1007.47
2018-10-01T07:25:51.763Z,1007.51
2018-10-01T07:26:51.744Z,1007.55
2018-10-01T07:27:51.728Z,1007.54
2018-10-01T07:28:51.715Z,1007.55
2018-10-01T07:29:51.701Z,1007.5
2018-10-01T07:30:51.680Z,1007.53
2018-10-01T07:31:51.662Z,1007.55
2018-10-01T07:32:51.647Z,1007.52
2018-10-01T07:33:51.631Z,1007.5
2018-10-01T07:34:51.612Z,1007.5
2018-10-01T07:35:51.598Z,1007.56
2018-10-01T07:36:51.581Z,1007.53
2018-10-01T07:37:51.564Z,1007.53
2018-10-01T07:38:51.609Z,1007.55
2018-10-01T07:39:51.533Z,1007.58
2018-10-01T07:40:51.521Z,1007.57
2018-10-01T07:41:51.499Z,1007.6
2018-10-01T07:42:51.485Z,1007.65
2018-10-01T07:43:51.466Z,1007.6
2018-10-01T07:44:51.518Z,1007.6
2018-10-01T07:45:51.435Z,1007.62
2018-10-01T07:46:51.419Z,1007.59
2018-10-01T07:47:51.404Z,1007.58
2018-10-01T07:48:51.409Z,1007.59
2018-10-01T07:49:51.373Z,1007.59
2018-10-01T07:50:51.473Z,1007.6
2018-10-01T07:51:51.341Z,1007.61
2018-10-01T07:52:51.322Z,1007.64
2018-10-01T07:53:51.316Z,1007.69
2018-10-01T07:54:51.304Z,1007.67
2018-10-01T07:55:51.277Z,1007.69
2018-10-01T07:56:51.259Z,1007.73
2018-10-01T07:57:51.244Z,1007.76
2018-10-01T07:58:51.228Z,1007.77
2018-10-01T07:59:51.322Z,1007.7
2018-10-01T08:00:51.195Z,1007.75
2018-10-01T08:01:51.196Z,1007.81
2018-10-01T08:02:51.164Z,1007.81
2018-10-01T08:03:51.146Z,1007.77
2018-10-01T08:04:51.133Z,1007.77
2018-10-01T08:05:51.115Z,1007.76
2018-10-01T08:06:51.098Z,1007.82
2018-10-01T08:07:51.083Z,1007.83
2018-10-01T08:08:51.068Z,1007.9
2018-10-01T08:09:51.053Z,1007.85
2018-10-01T08:10:51.035Z,1007.95
2018-10-01T08:11:51.021Z,1007.92
2018-10-01T08:12:51.003Z,1007.93
2018-10-01T08:13:50.989Z,1007.92
2018-10-01T08:14:50.973Z,1007.93
2018-10-01T08:15:51.032Z,1008
2018-10-01T08:16:50.943Z,1008.03
2018-10-01T08:17:50.927Z,1007.98
2018-10-01T08:18:50.912Z,1008.03
2018-10-01T08:19:50.895Z,1008.02
2018-10-01T08:20:50.881Z,1008.02
2018-10-01T08:21:50.864Z,1008.08
2018-10-01T08:22:50.848Z,1008.07
2018-10-01T08:23:50.832Z,1008.07
2018-10-01T08:24:50.819Z,1008.04
2018-10-01T08:25:50.803Z,1008.06
2018-10-01T08:26:50.786Z,1008.05
2018-10-01T08:27:50.771Z,1008.05
2018-10-01T08:28:50.756Z,1008.05
2018-10-01T08:29:50.900Z,1008.12
2018-10-01T08:30:50.725Z,1008.07
2018-10-01T08:31:50.711Z,1008.09
2018-10-01T08:32:50.691Z,1008.11
2018-10-01T08:33:50.678Z,1008.18
2018-10-01T08:34:50.662Z,1008.1
2018-10-01T08:35:50.648Z,1008.2
2018-10-01T08:36:50.636Z,1008.23
2018-10-01T08:37:50.629Z,1008.14
2018-10-01T08:38:50.619Z,1008.24
2018-10-01T08:39:50.586Z,1008.27
2018-10-01T08:40:50.569Z,1008.28
2018-10-01T08:41:50.557Z,1008.26
2018-10-01T08:42:50.540Z,1008.24
2018-10-01T08:43:50.532Z,1008.27
2018-10-01T08:44:50.511Z,1008.28
2018-10-01T08:45:50.494Z,1008.28
2018-10-01T08:46:50.482Z,1008.32
2018-10-01T08:47:50.462Z,1008.28
2018-10-01T08:48:50.449Z,1008.33
2018-10-01T08:49:50.433Z,1008.38
2018-10-01T08:50:50.417Z,1008.43
2018-10-01T08:51:50.488Z,1008.45
2018-10-01T08:52:50.387Z,1008.4
2018-10-01T08:53:50.372Z,1008.38
2018-10-01T08:54:50.354Z,1008.39
2018-10-01T08:55:50.339Z,1008.47
2018-10-01T08:56:50.326Z,1008.5
2018-10-01T08:57:50.311Z,1008.5
2018-10-01T08:58:50.296Z,1008.53
2018-10-01T08:59:50.280Z,1008.47
2018-10-01T09:00:50.267Z,1008.49
2018-10-01T09:01:50.250Z,1008.49
2018-10-01T09:02:50.238Z,1008.45
2018-10-01T09:03:50.220Z,1008.48
2018-10-01T09:04:50.204Z,1008.56
2018-10-01T09:05:50.191Z,1008.47
2018-10-01T09:06:50.198Z,1008.47
2018-10-01T09:07:50.159Z,1008.51
2018-10-01T09:08:50.143Z,1008.45
2018-10-01T09:09:50.127Z,1008.44
2018-10-01T09:10:50.112Z,1008.54
2018-10-01T09:11:50.099Z,1008.54
2018-10-01T09:12:50.085Z,1008.53
2018-10-01T09:13:50.068Z,1008.54
2018-10-01T09:14:50.104Z,1008.59
2018-10-01T09:15:50.039Z,1008.56
2018-10-01T09:16:50.025Z,1008.61
2018-10-01T09:17:50.009Z,1008.52
2018-10-01T09:18:49.996Z,1008.57
2018-10-01T09:19:49.979Z,1008.52
2018-10-01T09:20:49.963Z,1008.55
2018-10-01T09:21:49.949Z,1008.52
2018-10-01T09:22:49.935Z,1008.52
2018-10-01T09:23:49.926Z,1008.53
2018-10-01T09:24:49.906Z,1008.54
2018-10-01T09:25:49.890Z,1008.57
2018-10-01T09:26:49.877Z,1008.56
2018-10-01T09:27:49.860Z,1008.6
2018-10-01T09:28:49.850Z,1008.61
2018-10-01T09:29:49.832Z,1008.63
2018-10-01T09:30:49.846Z,1008.63
2018-10-01T09:31:49.803Z,1008.62
2018-10-01T09:32:49.791Z,1008.59
2018-10-01T09:33:49.774Z,1008.66
2018-10-01T09:34:49.768Z,1008.55
2018-10-01T09:35:49.745Z,1008.51
2018-10-01T09:36:49.737Z,1008.56
2018-10-01T09:38:49.705Z,1008.68
2018-10-01T09:39:49.689Z,1008.72
2018-10-01T09:40:49.674Z,1008.61
2018-10-01T09:41:49.665Z,1008.69
2018-10-01T09:42:49.644Z,1008.62
2018-10-01T09:43:49.636Z,1008.73
2018-10-01T09:44:49.616Z,1008.68
2018-10-01T09:45:49.613Z,1008.61
2018-10-01T09:46:49.589Z,1008.67
2018-10-01T09:47:49.607Z,1008.59
2018-10-01T09:48:49.562Z,1008.63
2018-10-01T09:49:49.553Z,1008.63
2018-10-01T09:50:49.532Z,1008.61
2018-10-01T09:51:49.525Z,1008.64
2018-10-01T09:52:49.508Z,1008.71
2018-10-01T09:53:49.562Z,1008.66
2018-10-01T09:54:49.481Z,1008.64
2018-10-01T09:55:49.465Z,1008.68
2018-10-01T09:56:49.452Z,1008.69
2018-10-01T09:57:49.439Z,1008.71
2018-10-01T09:58:49.425Z,1008.67
2018-10-01T09:59:49.412Z,1008.66
2018-10-01T10:00:49.399Z,1008.68
2018-10-01T10:01:49.389Z,1008.69
2018-10-01T10:02:49.372Z,1008.65
2018-10-01T10:03:49.371Z,1008.67
2018-10-01T10:04:49.432Z,1008.63
2018-10-01T10:05:49.336Z,1008.68
2018-10-01T10:06:49.324Z,1008.62
2018-10-01T10:07:49.301Z,1008.65
2018-10-01T10:08:49.290Z,1008.66
2018-10-01T10:09:49.276Z,1008.59
2018-10-01T10:10:49.264Z,1008.66
2018-10-01T10:11:49.249Z,1008.68
2018-10-01T10:12:49.236Z,1008.73
2018-10-01T10:13:49.222Z,1008.6
2018-10-01T10:14:49.212Z,1008.59
2018-10-01T10:15:49.195Z,1008.55
2018-10-01T10:16:49.304Z,1008.62
2018-10-01T10:17:49.176Z,1008.67
2018-10-01T10:18:49.154Z,1008.62
2018-10-01T10:19:49.142Z,1008.61
2018-10-01T10:20:49.129Z,1008.64
2018-10-01T10:21:49.115Z,1008.63
2018-10-01T10:22:49.104Z,1008.61
2018-10-01T10:23:49.090Z,1008.68
2018-10-01T10:24:49.076Z,1008.69
2018-10-01T10:25:49.063Z,1008.63
2018-10-01T10:26:49.056Z,1008.71
2018-10-01T10:27:49.035Z,1008.7
2018-10-01T10:28:49.022Z,1008.69
2018-10-01T10:29:49.008Z,1008.67
2018-10-01T10:30:48.997Z,1008.65
2018-10-01T10:31:48.983Z,1008.7
2018-10-01T10:32:48.970Z,1008.69
2018-10-01T10:33:48.957Z,1008.7
2018-10-01T10:34:48.943Z,1008.68
2018-10-01T10:35:48.931Z,1008.77
2018-10-01T10:36:48.915Z,1008.7
2018-10-01T10:37:48.902Z,1008.69
2018-10-01T10:38:48.894Z,1008.75
2018-10-01T10:39:48.878Z,1008.72
2018-10-01T10:40:48.866Z,1008.72
2018-10-01T10:41:48.959Z,1008.69
2018-10-01T10:42:48.838Z,1008.69
2018-10-01T10:43:48.825Z,1008.76
2018-10-01T10:44:48.812Z,1008.76
2018-10-01T10:45:48.800Z,1008.77
2018-10-01T10:46:48.787Z,1008.71
2018-10-01T10:47:48.772Z,1008.76
2018-10-01T10:48:48.760Z,1008.72
2018-10-01T10:49:48.747Z,1008.73
2018-10-01T10:50:48.734Z,1008.78
2018-10-01T10:51:48.721Z,1008.8
2018-10-01T10:52:48.707Z,1008.88
2018-10-01T10:53:48.696Z,1009
2018-10-01T10:54:48.683Z,1008.93
2018-10-01T10:55:48.673Z,1008.95
2018-10-01T10:56:48.668Z,1008.9
2018-10-01T10:57:48.646Z,1008.9
2018-10-01T10:58:48.633Z,1008.89
2018-10-01T10:59:48.620Z,1008.93
2018-10-01T11:00:48.608Z,1008.95
2018-10-01T11:01:48.596Z,1008.94
2018-10-01T11:02:48.579Z,1008.95
2018-10-01T11:03:48.770Z,1008.97
2018-10-01T11:04:48.554Z,1008.94
2018-10-01T11:05:48.540Z,1008.95
2018-10-01T11:06:48.530Z,1008.92
2018-10-01T11:07:48.515Z,1008.91
2018-10-01T11:08:48.502Z,1008.95
2018-10-01T11:09:48.490Z,1008.98
2018-10-01T11:10:48.476Z,1009.01
2018-10-01T11:11:48.465Z,1009.06
2018-10-01T11:12:48.452Z,1009.06
2018-10-01T11:13:48.503Z,1009.09
2018-10-01T11:14:48.583Z,1009.11
2018-10-01T11:15:48.411Z,1009.21
2018-10-01T11:16:48.401Z,1009.12
2018-10-01T11:17:48.484Z,1009.23
2018-10-01T11:18:48.449Z,1009.23
2018-10-01T11:19:48.469Z,1009.23
2018-10-01T11:20:48.372Z,1009.23
2018-10-01T11:21:48.336Z,1009.24
2018-10-01T11:22:48.345Z,1009.28
2018-10-01T11:23:48.312Z,1009.27
2018-10-01T11:24:48.293Z,1009.26
2018-10-01T11:25:48.279Z,1009.27
2018-10-01T11:26:48.283Z,1009.19
2018-10-01T11:27:48.328Z,1009.22
2018-10-01T11:28:48.362Z,1009.18
2018-10-01T11:29:48.225Z,1009.2
2018-10-01T11:30:48.215Z,1009.22
2018-10-01T11:31:48.403Z,1009.19
2018-10-01T11:32:48.188Z,1009.23
2018-10-01T11:33:48.174Z,1009.2
2018-10-01T11:34:48.171Z,1009.24
2018-10-01T11:35:48.146Z,1009.17
2018-10-01T11:36:48.133Z,1009.19
2018-10-01T11:37:48.120Z,1009.23
2018-10-01T11:38:48.109Z,1009.23
2018-10-01T11:39:48.307Z,1009.21
2018-10-01T11:40:48.082Z,1009.29
2018-10-01T11:41:48.071Z,1009.28
2018-10-01T11:42:48.056Z,1009.34
2018-10-01T11:43:48.042Z,1009.25
2018-10-01T11:44:48.032Z,1009.27
2018-10-01T11:45:48.224Z,1009.28
2018-10-01T11:46:48.005Z,1009.29
2018-10-01T11:47:47.995Z,1009.32
2018-10-01T11:48:47.984Z,1009.35
2018-10-01T11:49:47.971Z,1009.35
2018-10-01T11:50:47.959Z,1009.34
2018-10-01T11:51:48.058Z,1009.45
2018-10-01T11:52:47.939Z,1009.39
2018-10-01T11:53:47.927Z,1009.26
2018-10-01T11:54:47.917Z,1009.31
2018-10-01T11:55:47.908Z,1009.28
2018-10-01T11:56:47.903Z,1009.28
2018-10-01T11:57:48.019Z,1009.24
2018-10-01T11:58:47.878Z,1009.28
2018-10-01T11:59:47.868Z,1009.33
2018-10-01T12:00:47.859Z,1009.36
2018-10-01T12:01:47.852Z,1009.4
2018-10-01T12:02:47.840Z,1009.48
2018-10-01T12:03:48.006Z,1009.47
2018-10-01T12:04:47.817Z,1009.57
2018-10-01T12:05:47.807Z,1009.56
2018-10-01T12:06:47.796Z,1009.63
2018-10-01T12:07:47.786Z,1009.66
2018-10-01T12:08:47.777Z,1009.68
2018-10-01T12:09:47.935Z,1009.66